Tuusula, Finland

2:44 PM EET on December 18, 2014 (GMT +0200)
Vaunukangas | Change Station
CLOSE
Current Station
Personal Weather Station
Location: Suomi,
Elevation: 150 ft
Nearby Weather Stations

Elev 150 ft 60.41 °N, 25.00 °E | Updated 3 minutes ago

Mostly Cloudy
Mostly Cloudy
30.9 °F
Feels Like 31 °F
N
0.0
Wind Variable Wind from SW
Gusts 0.0 mph

Today
High -- | Low -- °F
--% Chance of Precip.
Yesterday
High -- | Low -- °F
Precip. -- in
9:23 AM 3:08 PM
Waning Crescent, 15% visible
Pressure 29.44 in
Visibility 6.2 miles
Clouds Few 2500 ft
Mostly Cloudy 20000 ft
Windchill 31 °F
Dew Point 29 °F
Humidity 94%
Rainfall 0.00 in
Snow Depth Not available.
UV 0 out of 12
Pollen Not available.
Air Quality Not available.
Flu Activity Not available.
METAR EFHK 181220Z 18005KT 9999 FEW025 BKN200 M00/M02 Q0997 NOSIG

More Conditions Fewer Conditions

Pressure 29.44 in
Visibility 6.2 miles
Clouds Few 2500 ft
Mostly Cloudy 20000 ft
Windchill 31 °F
Dew Point 29 °F
Humidity 94%
Rainfall 0.00 in
Snow Depth Not available.
UV 0 out of 12
Pollen Not available.
Air Quality Not available.
Flu Activity Not available.
METAR EFHK 181220Z 18005KT 9999 FEW025 BKN200 M00/M02 Q0997 NOSIG

More Conditions Fewer Conditions

10-Day Weather Forecast

Almanac

Astronomy

Dec. 18, 2014 Rise Set
Actual Time
Civil Twilight
Nautical Twilight
Astronomical Twilight
Moon
Length of Visible Light
Length of Day
Tomorrow will be .
, % of the Moon is Illuminated

Today's Extremes

Country Highs Country Lows

Community

WunderPhotos

Upload Photos

1,778,923 photos uploaded!

WunderBlogs® & News

Nearby

Air Quality

  Air Quality AQ Index Pollutant
Not available.

Snow Depth

Station Depth Elevation

Earthquake Activity

City Distance Mag. Time & Date
Minimum magnitude displayed is 2.5.

Coastal Water Temperatures

Place Temperature

Nearby Weather Stations